sensor_id;sensor_type;location;lat;lon;timestamp;P1;durP1;ratioP1;P2;durP2;ratioP2
35084;SDS011;21267;51.032;6.998;2024-03-07T00:00:10;56.95;;;38.58;;
35084;SDS011;21267;51.032;6.998;2024-03-07T00:02:46;61.13;;;37.75;;
35084;SDS011;21267;51.032;6.998;2024-03-07T00:05:17;58.97;;;38.30;;
35084;SDS011;21267;51.032;6.998;2024-03-07T00:07:45;58.97;;;36.03;;
35084;SDS011;21267;51.032;6.998;2024-03-07T00:10:13;57.65;;;37.67;;
35084;SDS011;21267;51.032;6.998;2024-03-07T00:12:42;60.20;;;37.33;;
35084;SDS011;21267;51.032;6.998;2024-03-07T00:15:11;68.25;;;39.22;;
35084;SDS011;21267;51.032;6.998;2024-03-07T00:17:40;58.92;;;37.00;;
35084;SDS011;21267;51.032;6.998;2024-03-07T00:20:08;63.42;;;37.53;;
35084;SDS011;21267;51.032;6.998;2024-03-07T00:22:42;58.85;;;36.95;;
35084;SDS011;21267;51.032;6.998;2024-03-07T00:25:09;66.32;;;40.80;;
35084;SDS011;21267;51.032;6.998;2024-03-07T00:27:37;59.67;;;37.15;;
35084;SDS011;21267;51.032;6.998;2024-03-07T00:30:07;49.17;;;30.73;;
35084;SDS011;21267;51.032;6.998;2024-03-07T00:32:43;67.30;;;40.00;;
35084;SDS011;21267;51.032;6.998;2024-03-07T00:35:10;48.23;;;29.43;;
35084;SDS011;21267;51.032;6.998;2024-03-07T00:37:37;59.17;;;38.93;;
35084;SDS011;21267;51.032;6.998;2024-03-07T00:40:04;64.57;;;39.50;;
35084;SDS011;21267;51.032;6.998;2024-03-07T00:42:31;62.45;;;39.63;;
35084;SDS011;21267;51.032;6.998;2024-03-07T00:44:58;63.60;;;39.00;;
35084;SDS011;21267;51.032;6.998;2024-03-07T00:47:25;66.20;;;39.97;;
35084;SDS011;21267;51.032;6.998;2024-03-07T00:49:52;64.53;;;39.45;;
35084;SDS011;21267;51.032;6.998;2024-03-07T00:52:20;71.30;;;39.38;;
35084;SDS011;21267;51.032;6.998;2024-03-07T00:54:47;67.43;;;38.80;;
35084;SDS011;21267;51.032;6.998;2024-03-07T01:01:38;69.45;;;41.58;;
35084;SDS011;21267;51.032;6.998;2024-03-07T01:04:08;71.90;;;38.38;;
35084;SDS011;21267;51.032;6.998;2024-03-07T01:06:35;65.30;;;39.90;;
35084;SDS011;21267;51.032;6.998;2024-03-07T01:09:07;67.25;;;39.55;;
35084;SDS011;21267;51.032;6.998;2024-03-07T01:11:42;67.90;;;38.38;;
35084;SDS011;21267;51.032;6.998;2024-03-07T01:14:12;63.95;;;38.70;;
35084;SDS011;21267;51.032;6.998;2024-03-07T01:16:40;59.88;;;35.97;;
35084;SDS011;21267;51.032;6.998;2024-03-07T01:19:07;65.57;;;39.37;;
35084;SDS011;21267;51.032;6.998;2024-03-07T01:21:35;64.07;;;34.55;;
35084;SDS011;21267;51.032;6.998;2024-03-07T01:24:04;62.65;;;35.83;;
35084;SDS011;21267;51.032;6.998;2024-03-07T01:29:02;64.55;;;36.70;;
35084;SDS011;21267;51.032;6.998;2024-03-07T01:31:29;63.03;;;36.73;;
35084;SDS011;21267;51.032;6.998;2024-03-07T01:33:55;59.22;;;36.25;;
35084;SDS011;21267;51.032;6.998;2024-03-07T01:36:22;64.25;;;36.30;;
35084;SDS011;21267;51.032;6.998;2024-03-07T01:38:49;62.23;;;38.00;;
35084;SDS011;21267;51.032;6.998;2024-03-07T01:41:18;61.55;;;36.13;;
35084;SDS011;21267;51.032;6.998;2024-03-07T01:43:45;61.45;;;35.70;;
35084;SDS011;21267;51.032;6.998;2024-03-07T01:46:12;50.47;;;27.37;;
35084;SDS011;21267;51.032;6.998;2024-03-07T01:48:42;57.72;;;35.10;;
35084;SDS011;21267;51.032;6.998;2024-03-07T01:51:10;61.33;;;35.42;;
35084;SDS011;21267;51.032;6.998;2024-03-07T01:53:37;63.20;;;35.27;;
35084;SDS011;21267;51.032;6.998;2024-03-07T01:56:04;59.40;;;36.28;;
35084;SDS011;21267;51.032;6.998;2024-03-07T01:58:32;59.75;;;35.53;;
35084;SDS011;21267;51.032;6.998;2024-03-07T02:01:00;60.28;;;34.95;;
35084;SDS011;21267;51.032;6.998;2024-03-07T02:03:28;61.17;;;34.92;;
35084;SDS011;21267;51.032;6.998;2024-03-07T02:05:55;58.88;;;34.42;;
35084;SDS011;21267;51.032;6.998;2024-03-07T02:10:49;44.57;;;27.83;;
35084;SDS011;21267;51.032;6.998;2024-03-07T02:13:16;57.20;;;34.30;;
35084;SDS011;21267;51.032;6.998;2024-03-07T02:15:44;44.23;;;25.30;;
35084;SDS011;21267;51.032;6.998;2024-03-07T02:18:11;63.87;;;34.03;;
35084;SDS011;21267;51.032;6.998;2024-03-07T02:20:41;56.20;;;33.22;;
35084;SDS011;21267;51.032;6.998;2024-03-07T02:23:12;57.38;;;32.45;;
35084;SDS011;21267;51.032;6.998;2024-03-07T02:25:40;58.67;;;34.23;;
35084;SDS011;21267;51.032;6.998;2024-03-07T02:28:07;60.03;;;35.17;;
35084;SDS011;21267;51.032;6.998;2024-03-07T02:30:34;57.08;;;33.85;;
35084;SDS011;21267;51.032;6.998;2024-03-07T02:33:00;59.38;;;34.78;;
35084;SDS011;21267;51.032;6.998;2024-03-07T02:35:34;58.03;;;34.13;;
35084;SDS011;21267;51.032;6.998;2024-03-07T02:38:04;59.60;;;34.10;;
35084;SDS011;21267;51.032;6.998;2024-03-07T02:40:31;54.25;;;34.38;;
35084;SDS011;21267;51.032;6.998;2024-03-07T02:42:59;57.95;;;35.33;;
35084;SDS011;21267;51.032;6.998;2024-03-07T02:45:26;55.92;;;34.92;;
35084;SDS011;21267;51.032;6.998;2024-03-07T02:47:53;53.15;;;32.20;;
35084;SDS011;21267;51.032;6.998;2024-03-07T02:50:21;54.90;;;32.70;;
35084;SDS011;21267;51.032;6.998;2024-03-07T02:52:49;54.53;;;33.60;;
35084;SDS011;21267;51.032;6.998;2024-03-07T02:55:16;56.30;;;34.60;;
35084;SDS011;21267;51.032;6.998;2024-03-07T02:57:45;57.03;;;35.92;;
35084;SDS011;21267;51.032;6.998;2024-03-07T03:00:12;56.87;;;33.03;;
35084;SDS011;21267;51.032;6.998;2024-03-07T03:02:47;59.25;;;33.55;;
35084;SDS011;21267;51.032;6.998;2024-03-07T03:05:15;51.33;;;33.03;;
35084;SDS011;21267;51.032;6.998;2024-03-07T03:07:42;54.53;;;33.80;;
35084;SDS011;21267;51.032;6.998;2024-03-07T03:10:10;60.70;;;36.67;;
35084;SDS011;21267;51.032;6.998;2024-03-07T03:12:39;61.33;;;34.47;;
35084;SDS011;21267;51.032;6.998;2024-03-07T03:15:07;53.78;;;32.55;;
35084;SDS011;21267;51.032;6.998;2024-03-07T03:17:34;38.60;;;25.37;;
35084;SDS011;21267;51.032;6.998;2024-03-07T03:20:02;55.67;;;33.42;;
35084;SDS011;21267;51.032;6.998;2024-03-07T03:22:36;53.47;;;31.58;;
35084;SDS011;21267;51.032;6.998;2024-03-07T03:25:03;53.27;;;32.90;;
35084;SDS011;21267;51.032;6.998;2024-03-07T03:27:30;52.55;;;32.83;;
35084;SDS011;21267;51.032;6.998;2024-03-07T03:29:58;49.58;;;33.13;;
35084;SDS011;21267;51.032;6.998;2024-03-07T03:32:27;48.25;;;31.13;;
35084;SDS011;21267;51.032;6.998;2024-03-07T03:34:54;53.83;;;35.03;;
35084;SDS011;21267;51.032;6.998;2024-03-07T03:37:21;52.37;;;32.90;;
35084;SDS011;21267;51.032;6.998;2024-03-07T03:39:48;53.17;;;34.10;;
35084;SDS011;21267;51.032;6.998;2024-03-07T03:44:43;50.63;;;32.45;;
35084;SDS011;21267;51.032;6.998;2024-03-07T03:47:11;52.28;;;31.80;;
35084;SDS011;21267;51.032;6.998;2024-03-07T03:49:38;51.75;;;32.88;;
35084;SDS011;21267;51.032;6.998;2024-03-07T03:52:04;51.33;;;31.67;;
35084;SDS011;21267;51.032;6.998;2024-03-07T03:54:31;53.28;;;33.15;;
35084;SDS011;21267;51.032;6.998;2024-03-07T03:56:58;50.00;;;31.05;;
35084;SDS011;21267;51.032;6.998;2024-03-07T03:59:25;53.00;;;31.90;;
35084;SDS011;21267;51.032;6.998;2024-03-07T04:01:52;51.23;;;32.87;;
35084;SDS011;21267;51.032;6.998;2024-03-07T04:04:19;47.92;;;31.98;;
35084;SDS011;21267;51.032;6.998;2024-03-07T04:06:46;53.08;;;32.10;;
35084;SDS011;21267;51.032;6.998;2024-03-07T04:09:13;51.17;;;33.53;;
35084;SDS011;21267;51.032;6.998;2024-03-07T04:11:44;53.00;;;32.90;;
35084;SDS011;21267;51.032;6.998;2024-03-07T04:14:12;50.33;;;32.50;;
35084;SDS011;21267;51.032;6.998;2024-03-07T04:16:39;52.85;;;32.15;;
35084;SDS011;21267;51.032;6.998;2024-03-07T04:19:06;46.33;;;30.67;;
35084;SDS011;21267;51.032;6.998;2024-03-07T04:21:35;50.97;;;32.97;;
35084;SDS011;21267;51.032;6.998;2024-03-07T04:24:02;53.03;;;31.50;;
35084;SDS011;21267;51.032;6.998;2024-03-07T04:26:29;52.90;;;34.30;;
35084;SDS011;21267;51.032;6.998;2024-03-07T04:28:56;50.70;;;31.02;;
35084;SDS011;21267;51.032;6.998;2024-03-07T04:33:51;51.00;;;31.50;;
35084;SDS011;21267;51.032;6.998;2024-03-07T04:36:18;51.33;;;32.50;;
35084;SDS011;21267;51.032;6.998;2024-03-07T04:38:45;53.53;;;32.78;;
35084;SDS011;21267;51.032;6.998;2024-03-07T04:41:12;56.42;;;34.80;;
35084;SDS011;21267;51.032;6.998;2024-03-07T04:43:38;51.75;;;31.65;;
35084;SDS011;21267;51.032;6.998;2024-03-07T04:46:05;53.13;;;33.67;;
35084;SDS011;21267;51.032;6.998;2024-03-07T04:48:33;53.65;;;32.97;;
35084;SDS011;21267;51.032;6.998;2024-03-07T04:51:00;49.97;;;32.50;;
35084;SDS011;21267;51.032;6.998;2024-03-07T04:53:27;53.22;;;32.33;;
35084;SDS011;21267;51.032;6.998;2024-03-07T04:55:54;50.58;;;30.80;;
35084;SDS011;21267;51.032;6.998;2024-03-07T04:58:22;49.15;;;31.67;;
35084;SDS011;21267;51.032;6.998;2024-03-07T05:00:49;55.17;;;33.73;;
35084;SDS011;21267;51.032;6.998;2024-03-07T05:03:16;52.88;;;34.25;;
35084;SDS011;21267;51.032;6.998;2024-03-07T05:05:43;53.20;;;32.30;;
35084;SDS011;21267;51.032;6.998;2024-03-07T05:08:10;53.60;;;33.35;;
35084;SDS011;21267;51.032;6.998;2024-03-07T05:10:37;53.33;;;34.53;;
35084;SDS011;21267;51.032;6.998;2024-03-07T05:13:04;51.80;;;32.15;;
35084;SDS011;21267;51.032;6.998;2024-03-07T05:15:32;52.50;;;32.50;;
35084;SDS011;21267;51.032;6.998;2024-03-07T05:18:00;54.38;;;33.22;;
35084;SDS011;21267;51.032;6.998;2024-03-07T05:20:27;57.10;;;33.40;;
35084;SDS011;21267;51.032;6.998;2024-03-07T05:22:55;57.05;;;34.83;;
35084;SDS011;21267;51.032;6.998;2024-03-07T05:25:22;52.83;;;33.35;;
35084;SDS011;21267;51.032;6.998;2024-03-07T05:27:49;54.23;;;33.43;;
35084;SDS011;21267;51.032;6.998;2024-03-07T05:30:19;53.33;;;32.80;;
35084;SDS011;21267;51.032;6.998;2024-03-07T05:32:48;53.55;;;33.08;;
35084;SDS011;21267;51.032;6.998;2024-03-07T05:35:16;50.42;;;31.83;;
35084;SDS011;21267;51.032;6.998;2024-03-07T05:37:47;52.58;;;32.03;;
35084;SDS011;21267;51.032;6.998;2024-03-07T05:40:13;51.88;;;33.53;;
35084;SDS011;21267;51.032;6.998;2024-03-07T05:42:40;54.67;;;32.97;;
35084;SDS011;21267;51.032;6.998;2024-03-07T05:45:08;52.33;;;31.97;;
35084;SDS011;21267;51.032;6.998;2024-03-07T05:47:35;51.75;;;32.55;;
35084;SDS011;21267;51.032;6.998;2024-03-07T05:50:02;54.40;;;31.60;;
35084;SDS011;21267;51.032;6.998;2024-03-07T05:52:30;55.92;;;34.53;;
35084;SDS011;21267;51.032;6.998;2024-03-07T05:54:57;53.90;;;34.13;;
35084;SDS011;21267;51.032;6.998;2024-03-07T05:57:24;53.67;;;33.43;;
35084;SDS011;21267;51.032;6.998;2024-03-07T05:59:51;52.88;;;32.63;;
35084;SDS011;21267;51.032;6.998;2024-03-07T06:02:18;39.17;;;26.07;;
35084;SDS011;21267;51.032;6.998;2024-03-07T06:04:46;52.08;;;31.90;;
35084;SDS011;21267;51.032;6.998;2024-03-07T06:07:14;52.50;;;31.50;;
35084;SDS011;21267;51.032;6.998;2024-03-07T06:09:41;51.80;;;32.33;;
35084;SDS011;21267;51.032;6.998;2024-03-07T06:12:08;48.13;;;31.88;;
35084;SDS011;21267;51.032;6.998;2024-03-07T06:14:48;53.40;;;32.22;;
35084;SDS011;21267;51.032;6.998;2024-03-07T06:17:16;52.78;;;33.20;;
35084;SDS011;21267;51.032;6.998;2024-03-07T06:19:48;56.10;;;33.90;;
35084;SDS011;21267;51.032;6.998;2024-03-07T06:22:15;50.22;;;33.03;;
35084;SDS011;21267;51.032;6.998;2024-03-07T06:24:42;50.65;;;32.53;;
35084;SDS011;21267;51.032;6.998;2024-03-07T06:27:09;53.13;;;34.07;;
35084;SDS011;21267;51.032;6.998;2024-03-07T06:29:43;53.80;;;33.10;;
35084;SDS011;21267;51.032;6.998;2024-03-07T06:32:10;39.10;;;25.87;;
35084;SDS011;21267;51.032;6.998;2024-03-07T06:34:37;51.90;;;31.83;;
35084;SDS011;21267;51.032;6.998;2024-03-07T06:37:04;56.65;;;33.00;;
35084;SDS011;21267;51.032;6.998;2024-03-07T06:39:32;57.72;;;34.88;;
35084;SDS011;21267;51.032;6.998;2024-03-07T06:41:59;50.63;;;33.50;;
35084;SDS011;21267;51.032;6.998;2024-03-07T06:44:27;53.55;;;34.65;;
35084;SDS011;21267;51.032;6.998;2024-03-07T06:46:54;53.87;;;33.63;;
35084;SDS011;21267;51.032;6.998;2024-03-07T06:49:21;56.20;;;35.13;;
35084;SDS011;21267;51.032;6.998;2024-03-07T06:51:48;52.35;;;33.00;;
35084;SDS011;21267;51.032;6.998;2024-03-07T06:54:15;53.93;;;33.17;;
35084;SDS011;21267;51.032;6.998;2024-03-07T06:56:42;49.53;;;32.77;;
35084;SDS011;21267;51.032;6.998;2024-03-07T06:59:10;47.03;;;32.42;;
35084;SDS011;21267;51.032;6.998;2024-03-07T07:01:37;47.15;;;32.97;;
35084;SDS011;21267;51.032;6.998;2024-03-07T07:04:04;49.70;;;32.47;;
35084;SDS011;21267;51.032;6.998;2024-03-07T07:06:31;45.63;;;31.43;;
35084;SDS011;21267;51.032;6.998;2024-03-07T07:08:58;46.67;;;30.23;;
35084;SDS011;21267;51.032;6.998;2024-03-07T07:11:26;51.03;;;31.67;;
35084;SDS011;21267;51.032;6.998;2024-03-07T07:13:59;47.63;;;31.60;;
35084;SDS011;21267;51.032;6.998;2024-03-07T07:16:26;32.83;;;22.43;;
35084;SDS011;21267;51.032;6.998;2024-03-07T07:18:53;39.25;;;28.15;;
35084;SDS011;21267;51.032;6.998;2024-03-07T07:21:22;38.58;;;26.05;;
35084;SDS011;21267;51.032;6.998;2024-03-07T07:23:48;44.45;;;27.00;;
35084;SDS011;21267;51.032;6.998;2024-03-07T07:26:15;38.45;;;26.65;;
35084;SDS011;21267;51.032;6.998;2024-03-07T07:28:42;36.10;;;25.60;;
35084;SDS011;21267;51.032;6.998;2024-03-07T07:33:38;37.88;;;27.92;;
35084;SDS011;21267;51.032;6.998;2024-03-07T07:36:19;35.38;;;25.75;;
35084;SDS011;21267;51.032;6.998;2024-03-07T07:38:56;35.23;;;26.23;;
35084;SDS011;21267;51.032;6.998;2024-03-07T07:41:31;34.42;;;25.85;;
35084;SDS011;21267;51.032;6.998;2024-03-07T07:44:01;33.58;;;24.25;;
35084;SDS011;21267;51.032;6.998;2024-03-07T07:46:42;30.45;;;23.02;;
35084;SDS011;21267;51.032;6.998;2024-03-07T07:49:09;31.05;;;22.98;;
35084;SDS011;21267;51.032;6.998;2024-03-07T07:51:37;34.25;;;23.95;;
35084;SDS011;21267;51.032;6.998;2024-03-07T07:54:11;29.45;;;21.20;;
35084;SDS011;21267;51.032;6.998;2024-03-07T07:56:40;30.27;;;23.90;;
35084;SDS011;21267;51.032;6.998;2024-03-07T07:59:18;24.50;;;18.52;;
35084;SDS011;21267;51.032;6.998;2024-03-07T08:01:48;26.80;;;19.17;;
35084;SDS011;21267;51.032;6.998;2024-03-07T08:06:43;25.37;;;19.27;;
35084;SDS011;21267;51.032;6.998;2024-03-07T08:09:16;26.67;;;18.85;;
35084;SDS011;21267;51.032;6.998;2024-03-07T08:11:45;29.73;;;20.55;;
35084;SDS011;21267;51.032;6.998;2024-03-07T08:14:29;25.42;;;17.15;;
35084;SDS011;21267;51.032;6.998;2024-03-07T08:17:03;27.33;;;19.80;;
35084;SDS011;21267;51.032;6.998;2024-03-07T08:23:04;24.10;;;16.40;;
35084;SDS011;21267;51.032;6.998;2024-03-07T08:36:41;27.00;;;19.15;;
35084;SDS011;21267;51.032;6.998;2024-03-07T08:39:27;21.50;;;15.20;;
35084;SDS011;21267;51.032;6.998;2024-03-07T08:42:07;24.23;;;17.17;;
35084;SDS011;21267;51.032;6.998;2024-03-07T08:44:50;23.75;;;18.23;;
35084;SDS011;21267;51.032;6.998;2024-03-07T08:47:19;22.88;;;18.42;;
35084;SDS011;21267;51.032;6.998;2024-03-07T08:49:59;25.17;;;18.35;;
35084;SDS011;21267;51.032;6.998;2024-03-07T08:55:28;23.25;;;17.50;;
35084;SDS011;21267;51.032;6.998;2024-03-07T08:58:04;20.75;;;15.07;;
35084;SDS011;21267;51.032;6.998;2024-03-07T09:00:43;22.02;;;16.38;;
35084;SDS011;21267;51.032;6.998;2024-03-07T09:03:46;22.95;;;17.10;;
35084;SDS011;21267;51.032;6.998;2024-03-07T09:06:39;20.80;;;16.00;;
35084;SDS011;21267;51.032;6.998;2024-03-07T09:15:43;22.10;;;16.73;;
35084;SDS011;21267;51.032;6.998;2024-03-07T09:18:28;21.15;;;16.48;;
35084;SDS011;21267;51.032;6.998;2024-03-07T09:21:18;19.75;;;14.98;;
35084;SDS011;21267;51.032;6.998;2024-03-07T09:23:51;19.45;;;15.63;;
35084;SDS011;21267;51.032;6.998;2024-03-07T09:26:45;19.08;;;13.25;;
35084;SDS011;21267;51.032;6.998;2024-03-07T09:33:22;21.30;;;17.05;;
35084;SDS011;21267;51.032;6.998;2024-03-07T09:40:07;21.98;;;17.02;;
35084;SDS011;21267;51.032;6.998;2024-03-07T09:42:58;24.33;;;17.55;;
35084;SDS011;21267;51.032;6.998;2024-03-07T09:45:50;21.73;;;16.33;;
35084;SDS011;21267;51.032;6.998;2024-03-07T09:56:01;22.38;;;15.77;;
35084;SDS011;21267;51.032;6.998;2024-03-07T10:05:42;25.15;;;15.50;;
35084;SDS011;21267;51.032;6.998;2024-03-07T10:09:09;20.25;;;16.10;;
35084;SDS011;21267;51.032;6.998;2024-03-07T10:15:14;21.42;;;14.18;;
35084;SDS011;21267;51.032;6.998;2024-03-07T10:18:21;20.83;;;12.20;;
35084;SDS011;21267;51.032;6.998;2024-03-07T10:21:00;23.83;;;18.05;;
35084;SDS011;21267;51.032;6.998;2024-03-07T10:27:25;22.50;;;16.75;;
35084;SDS011;21267;51.032;6.998;2024-03-07T10:30:11;21.42;;;15.80;;
35084;SDS011;21267;51.032;6.998;2024-03-07T10:35:53;23.20;;;15.63;;
35084;SDS011;21267;51.032;6.998;2024-03-07T10:41:46;21.38;;;16.25;;
35084;SDS011;21267;51.032;6.998;2024-03-07T10:44:23;27.52;;;17.20;;
35084;SDS011;21267;51.032;6.998;2024-03-07T10:46:56;20.83;;;16.38;;
35084;SDS011;21267;51.032;6.998;2024-03-07T10:49:31;21.60;;;16.27;;
35084;SDS011;21267;51.032;6.998;2024-03-07T10:52:13;24.15;;;17.83;;
35084;SDS011;21267;51.032;6.998;2024-03-07T10:55:00;28.55;;;19.40;;
35084;SDS011;21267;51.032;6.998;2024-03-07T11:00:23;24.98;;;17.85;;
35084;SDS011;21267;51.032;6.998;2024-03-07T11:02:59;21.27;;;16.52;;
35084;SDS011;21267;51.032;6.998;2024-03-07T11:05:36;22.40;;;17.20;;
35084;SDS011;21267;51.032;6.998;2024-03-07T11:08:03;20.45;;;16.10;;
35084;SDS011;21267;51.032;6.998;2024-03-07T11:10:40;26.80;;;20.42;;
35084;SDS011;21267;51.032;6.998;2024-03-07T11:13:10;20.67;;;14.23;;
35084;SDS011;21267;51.032;6.998;2024-03-07T11:15:53;19.77;;;14.80;;
35084;SDS011;21267;51.032;6.998;2024-03-07T11:18:40;21.13;;;13.70;;
35084;SDS011;21267;51.032;6.998;2024-03-07T11:21:07;23.02;;;13.05;;
35084;SDS011;21267;51.032;6.998;2024-03-07T11:24:16;20.23;;;15.15;;
35084;SDS011;21267;51.032;6.998;2024-03-07T11:26:51;20.35;;;14.55;;
35084;SDS011;21267;51.032;6.998;2024-03-07T11:32:13;22.65;;;16.10;;
35084;SDS011;21267;51.032;6.998;2024-03-07T11:34:54;20.63;;;14.70;;
35084;SDS011;21267;51.032;6.998;2024-03-07T11:37:37;18.60;;;13.07;;
35084;SDS011;21267;51.032;6.998;2024-03-07T11:42:52;18.20;;;13.80;;
35084;SDS011;21267;51.032;6.998;2024-03-07T11:45:20;17.90;;;13.80;;
35084;SDS011;21267;51.032;6.998;2024-03-07T11:47:56;17.63;;;13.85;;
35084;SDS011;21267;51.032;6.998;2024-03-07T11:50:58;19.13;;;12.52;;
35084;SDS011;21267;51.032;6.998;2024-03-07T11:53:25;20.70;;;12.80;;
35084;SDS011;21267;51.032;6.998;2024-03-07T11:56:05;17.90;;;14.40;;
35084;SDS011;21267;51.032;6.998;2024-03-07T11:58:39;18.35;;;13.35;;
35084;SDS011;21267;51.032;6.998;2024-03-07T12:01:08;19.05;;;10.93;;
35084;SDS011;21267;51.032;6.998;2024-03-07T12:03:56;18.35;;;13.73;;
35084;SDS011;21267;51.032;6.998;2024-03-07T12:06:52;16.15;;;12.60;;
35084;SDS011;21267;51.032;6.998;2024-03-07T12:09:20;16.85;;;13.00;;
35084;SDS011;21267;51.032;6.998;2024-03-07T12:11:51;19.48;;;12.32;;
35084;SDS011;21267;51.032;6.998;2024-03-07T12:14:29;16.08;;;11.70;;
35084;SDS011;21267;51.032;6.998;2024-03-07T12:17:05;16.30;;;12.00;;
35084;SDS011;21267;51.032;6.998;2024-03-07T12:19:33;16.75;;;11.18;;
35084;SDS011;21267;51.032;6.998;2024-03-07T12:22:03;16.53;;;10.47;;
35084;SDS011;21267;51.032;6.998;2024-03-07T12:24:29;15.93;;;11.60;;
35084;SDS011;21267;51.032;6.998;2024-03-07T12:27:10;15.93;;;12.20;;
35084;SDS011;21267;51.032;6.998;2024-03-07T12:29:39;15.00;;;11.07;;
35084;SDS011;21267;51.032;6.998;2024-03-07T12:32:06;12.25;;;9.90;;
35084;SDS011;21267;51.032;6.998;2024-03-07T12:34:37;13.00;;;9.38;;
35084;SDS011;21267;51.032;6.998;2024-03-07T12:37:07;13.15;;;10.63;;
35084;SDS011;21267;51.032;6.998;2024-03-07T12:39:36;16.00;;;10.48;;
35084;SDS011;21267;51.032;6.998;2024-03-07T12:42:05;16.67;;;11.30;;
35084;SDS011;21267;51.032;6.998;2024-03-07T12:44:43;12.70;;;9.55;;
35084;SDS011;21267;51.032;6.998;2024-03-07T12:47:14;12.15;;;9.98;;
35084;SDS011;21267;51.032;6.998;2024-03-07T12:52:14;13.43;;;8.98;;
35084;SDS011;21267;51.032;6.998;2024-03-07T12:54:42;12.60;;;9.45;;
35084;SDS011;21267;51.032;6.998;2024-03-07T12:57:10;14.10;;;9.77;;
35084;SDS011;21267;51.032;6.998;2024-03-07T12:59:42;15.07;;;9.80;;
35084;SDS011;21267;51.032;6.998;2024-03-07T13:02:18;15.00;;;11.53;;
35084;SDS011;21267;51.032;6.998;2024-03-07T13:04:48;15.48;;;9.57;;
35084;SDS011;21267;51.032;6.998;2024-03-07T13:07:31;13.38;;;8.75;;
35084;SDS011;21267;51.032;6.998;2024-03-07T13:10:01;18.75;;;9.05;;
35084;SDS011;21267;51.032;6.998;2024-03-07T13:12:29;13.77;;;10.27;;
35084;SDS011;21267;51.032;6.998;2024-03-07T13:15:12;15.02;;;9.30;;
35084;SDS011;21267;51.032;6.998;2024-03-07T13:17:41;15.93;;;10.05;;
35084;SDS011;21267;51.032;6.998;2024-03-07T13:20:13;12.05;;;9.05;;
35084;SDS011;21267;51.032;6.998;2024-03-07T13:22:41;15.15;;;9.73;;
35084;SDS011;21267;51.032;6.998;2024-03-07T13:25:23;14.52;;;10.48;;
35084;SDS011;21267;51.032;6.998;2024-03-07T13:30:27;11.02;;;8.23;;
35084;SDS011;21267;51.032;6.998;2024-03-07T13:33:02;13.40;;;9.32;;
35084;SDS011;21267;51.032;6.998;2024-03-07T13:37:57;13.57;;;10.15;;
35084;SDS011;21267;51.032;6.998;2024-03-07T13:40:25;11.32;;;9.88;;
35084;SDS011;21267;51.032;6.998;2024-03-07T13:42:58;12.93;;;8.90;;
35084;SDS011;21267;51.032;6.998;2024-03-07T13:50:26;14.43;;;10.48;;
35084;SDS011;21267;51.032;6.998;2024-03-07T13:53:17;14.25;;;9.63;;
35084;SDS011;21267;51.032;6.998;2024-03-07T14:03:51;10.35;;;8.57;;
35084;SDS011;21267;51.032;6.998;2024-03-07T14:07:14;12.50;;;9.02;;
35084;SDS011;21267;51.032;6.998;2024-03-07T14:09:51;11.45;;;9.25;;
35084;SDS011;21267;51.032;6.998;2024-03-07T14:21:49;10.75;;;8.27;;
35084;SDS011;21267;51.032;6.998;2024-03-07T14:27:50;12.57;;;7.65;;
35084;SDS011;21267;51.032;6.998;2024-03-07T14:33:32;11.93;;;7.97;;
35084;SDS011;21267;51.032;6.998;2024-03-07T14:36:46;9.82;;;6.80;;
35084;SDS011;21267;51.032;6.998;2024-03-07T14:39:18;9.95;;;6.95;;
35084;SDS011;21267;51.032;6.998;2024-03-07T14:41:51;8.00;;;6.28;;
35084;SDS011;21267;51.032;6.998;2024-03-07T14:44:30;10.65;;;8.38;;
35084;SDS011;21267;51.032;6.998;2024-03-07T14:46:59;12.05;;;7.65;;
35084;SDS011;21267;51.032;6.998;2024-03-07T14:49:33;11.43;;;8.27;;
35084;SDS011;21267;51.032;6.998;2024-03-07T14:52:01;10.48;;;8.50;;
35084;SDS011;21267;51.032;6.998;2024-03-07T14:54:31;9.93;;;7.35;;
35084;SDS011;21267;51.032;6.998;2024-03-07T14:56:58;9.52;;;6.75;;
35084;SDS011;21267;51.032;6.998;2024-03-07T14:59:28;6.97;;;5.20;;
35084;SDS011;21267;51.032;6.998;2024-03-07T15:01:54;10.52;;;9.00;;
35084;SDS011;21267;51.032;6.998;2024-03-07T15:04:27;10.68;;;8.90;;
35084;SDS011;21267;51.032;6.998;2024-03-07T15:06:58;11.93;;;8.45;;
35084;SDS011;21267;51.032;6.998;2024-03-07T15:09:33;11.52;;;8.25;;
35084;SDS011;21267;51.032;6.998;2024-03-07T15:12:02;11.48;;;6.07;;
35084;SDS011;21267;51.032;6.998;2024-03-07T15:14:30;6.88;;;5.38;;
35084;SDS011;21267;51.032;6.998;2024-03-07T15:17:20;11.70;;;7.80;;
35084;SDS011;21267;51.032;6.998;2024-03-07T15:19:50;10.05;;;6.72;;
35084;SDS011;21267;51.032;6.998;2024-03-07T15:22:17;9.57;;;7.32;;
35084;SDS011;21267;51.032;6.998;2024-03-07T15:24:46;12.20;;;7.65;;
35084;SDS011;21267;51.032;6.998;2024-03-07T15:27:15;12.00;;;7.97;;
35084;SDS011;21267;51.032;6.998;2024-03-07T15:29:43;11.90;;;8.43;;
35084;SDS011;21267;51.032;6.998;2024-03-07T15:32:10;9.83;;;6.77;;
35084;SDS011;21267;51.032;6.998;2024-03-07T15:34:46;11.60;;;8.48;;
35084;SDS011;21267;51.032;6.998;2024-03-07T15:37:17;12.73;;;7.43;;
35084;SDS011;21267;51.032;6.998;2024-03-07T15:39:49;13.15;;;8.32;;
35084;SDS011;21267;51.032;6.998;2024-03-07T15:42:17;10.63;;;8.13;;
35084;SDS011;21267;51.032;6.998;2024-03-07T15:44:45;14.68;;;8.82;;
35084;SDS011;21267;51.032;6.998;2024-03-07T15:47:12;11.33;;;8.47;;
35084;SDS011;21267;51.032;6.998;2024-03-07T15:49:45;11.65;;;7.45;;
35084;SDS011;21267;51.032;6.998;2024-03-07T15:52:12;11.07;;;6.70;;
35084;SDS011;21267;51.032;6.998;2024-03-07T15:54:39;14.95;;;10.13;;
35084;SDS011;21267;51.032;6.998;2024-03-07T15:57:05;16.52;;;10.73;;
35084;SDS011;21267;51.032;6.998;2024-03-07T15:59:35;14.35;;;9.38;;
35084;SDS011;21267;51.032;6.998;2024-03-07T16:02:02;13.30;;;9.25;;
35084;SDS011;21267;51.032;6.998;2024-03-07T16:04:29;13.97;;;7.90;;
35084;SDS011;21267;51.032;6.998;2024-03-07T16:06:57;16.38;;;11.15;;
35084;SDS011;21267;51.032;6.998;2024-03-07T16:09:37;19.27;;;11.63;;
35084;SDS011;21267;51.032;6.998;2024-03-07T16:12:04;15.53;;;11.67;;
35084;SDS011;21267;51.032;6.998;2024-03-07T16:14:47;13.77;;;10.57;;
35084;SDS011;21267;51.032;6.998;2024-03-07T16:17:15;15.73;;;11.10;;
35084;SDS011;21267;51.032;6.998;2024-03-07T16:19:45;13.70;;;7.22;;
35084;SDS011;21267;51.032;6.998;2024-03-07T16:22:15;14.85;;;10.73;;
35084;SDS011;21267;51.032;6.998;2024-03-07T16:24:43;13.52;;;10.23;;
35084;SDS011;21267;51.032;6.998;2024-03-07T16:27:11;13.70;;;9.23;;
35084;SDS011;21267;51.032;6.998;2024-03-07T16:29:38;15.18;;;8.85;;
35084;SDS011;21267;51.032;6.998;2024-03-07T16:32:08;15.32;;;10.63;;
35084;SDS011;21267;51.032;6.998;2024-03-07T16:34:39;14.70;;;9.98;;
35084;SDS011;21267;51.032;6.998;2024-03-07T16:37:06;14.10;;;9.90;;
35084;SDS011;21267;51.032;6.998;2024-03-07T16:39:32;14.93;;;10.68;;
35084;SDS011;21267;51.032;6.998;2024-03-07T16:42:14;14.57;;;9.88;;
35084;SDS011;21267;51.032;6.998;2024-03-07T16:44:43;17.75;;;9.95;;
35084;SDS011;21267;51.032;6.998;2024-03-07T16:47:10;11.67;;;7.23;;
35084;SDS011;21267;51.032;6.998;2024-03-07T16:49:38;14.38;;;9.50;;
35084;SDS011;21267;51.032;6.998;2024-03-07T16:52:19;13.75;;;8.70;;